createdAt,value
2018-08-28T00:00:09.373Z,71.83
2018-08-28T00:02:33.421Z,73.17
2018-08-28T00:04:57.627Z,73.56
2018-08-28T00:07:21.545Z,72.29
2018-08-28T00:09:45.651Z,73.22
2018-08-28T00:12:09.518Z,71.97
2018-08-28T00:14:33.384Z,72.43
2018-08-28T00:16:57.314Z,72.57
2018-08-28T00:19:22.513Z,72.91
2018-08-28T00:21:46.551Z,73.01
2018-08-28T00:24:10.428Z,72.38
2018-08-28T00:26:34.299Z,72.53
2018-08-28T00:28:58.178Z,72.10
2018-08-28T00:31:22.079Z,73.25
2018-08-28T00:33:46.110Z,73.29
2018-08-28T00:36:09.989Z,72.84
2018-08-28T00:38:33.867Z,72.46
2018-08-28T00:40:57.774Z,71.99
2018-08-28T00:43:21.684Z,72.65
2018-08-28T00:45:45.669Z,71.68
2018-08-28T00:48:09.531Z,71.38
2018-08-28T00:50:33.431Z,70.90
2018-08-28T00:52:57.545Z,72.07
2018-08-28T00:55:21.403Z,71.37
2018-08-28T00:57:45.252Z,71.35
2018-08-28T01:00:10.070Z,72.19
2018-08-28T01:02:33.965Z,71.91
2018-08-28T01:04:57.822Z,72.89
2018-08-28T01:07:21.809Z,72.02
2018-08-28T01:09:45.702Z,71.81
2018-08-28T01:12:09.634Z,72.34
2018-08-28T01:14:33.531Z,71.19
2018-08-28T01:16:57.431Z,72.17
2018-08-28T01:19:21.303Z,71.47
2018-08-28T01:21:45.148Z,71.25
2018-08-28T01:24:09.062Z,71.53
2018-08-28T01:26:32.906Z,72.25
2018-08-28T01:28:56.813Z,72.39
2018-08-28T01:31:20.711Z,71.43
2018-08-28T01:33:44.596Z,71.56
2018-08-28T01:36:08.508Z,71.49
2018-08-28T01:38:32.395Z,71.55
2018-08-28T01:40:56.315Z,71.54
2018-08-28T01:43:23.676Z,71.36
2018-08-28T01:45:47.539Z,71.50
2018-08-28T01:48:11.439Z,72.31
2018-08-28T01:50:35.294Z,71.27
2018-08-28T01:52:59.237Z,71.57
2018-08-28T01:55:23.111Z,71.12
2018-08-28T01:57:46.982Z,70.26
2018-08-28T02:00:10.869Z,70.05
2018-08-28T02:02:34.793Z,71.41
2018-08-28T02:04:58.671Z,70.83
2018-08-28T02:07:22.613Z,71.14
2018-08-28T02:09:46.483Z,70.87
2018-08-28T02:12:10.407Z,70.51
2018-08-28T02:14:34.424Z,71.31
2018-08-28T02:16:58.439Z,71.59
2018-08-28T02:19:22.340Z,70.44
2018-08-28T02:21:46.214Z,70.83
2018-08-28T02:24:10.158Z,70.43
2018-08-28T02:26:34.012Z,70.14
2018-08-28T02:28:57.887Z,70.55
2018-08-28T02:31:21.787Z,71.17
2018-08-28T02:33:45.719Z,70.98
2018-08-28T02:36:09.551Z,71.39
2018-08-28T02:38:33.606Z,70.97
2018-08-28T02:40:57.463Z,71.32
2018-08-28T02:43:21.357Z,71.47
2018-08-28T02:45:45.200Z,70.95
2018-08-28T02:48:09.059Z,70.55
2018-08-28T02:50:32.955Z,71.00
2018-08-28T02:52:56.820Z,71.08
2018-08-28T02:55:20.767Z,72.36
2018-08-28T02:57:45.397Z,70.64
2018-08-28T03:00:09.271Z,70.36
2018-08-28T03:02:33.165Z,70.08
2018-08-28T03:04:57.029Z,69.80
2018-08-28T03:07:20.929Z,69.14
2018-08-28T03:09:44.798Z,69.17
2018-08-28T03:12:08.643Z,68.87
2018-08-28T03:14:32.575Z,68.93
2018-08-28T03:16:56.422Z,69.44
2018-08-28T03:19:20.346Z,69.46
2018-08-28T03:21:44.223Z,68.65
2018-08-28T03:24:08.072Z,69.53
2018-08-28T03:26:31.961Z,68.75
2018-08-28T03:28:55.819Z,69.20
2018-08-28T03:31:19.690Z,69.45
2018-08-28T03:33:43.549Z,69.96
2018-08-28T03:36:07.487Z,69.38
2018-08-28T03:38:31.415Z,69.67
2018-08-28T03:40:55.272Z,68.74
2018-08-28T03:43:19.667Z,69.42
2018-08-28T03:45:43.513Z,69.41
2018-08-28T03:48:07.383Z,70.20
2018-08-28T03:50:31.455Z,70.00
2018-08-28T03:52:55.313Z,71.02
2018-08-28T03:55:19.352Z,70.23
2018-08-28T03:57:43.145Z,68.65
2018-08-28T04:00:07.163Z,68.87
2018-08-28T04:02:31.095Z,68.82
2018-08-28T04:04:54.947Z,68.41
2018-08-28T04:07:18.845Z,68.89
2018-08-28T04:09:42.715Z,68.54
2018-08-28T04:12:06.225Z,68.56
2018-08-28T04:14:30.151Z,68.40
2018-08-28T04:16:54.054Z,68.86
2018-08-28T04:19:17.905Z,68.86
2018-08-28T04:21:41.783Z,68.90
2018-08-28T04:24:05.644Z,68.80
2018-08-28T04:26:29.545Z,69.13
2018-08-28T04:28:53.453Z,68.33
2018-08-28T04:31:17.321Z,69.05
2018-08-28T04:33:41.204Z,69.21
2018-08-28T04:36:05.142Z,68.86
2018-08-28T04:38:28.971Z,69.64
2018-08-28T04:40:52.924Z,69.11
2018-08-28T04:43:16.777Z,69.15
2018-08-28T04:45:40.630Z,70.12
2018-08-28T04:48:04.564Z,69.85
2018-08-28T04:50:28.417Z,69.51
2018-08-28T04:52:52.473Z,69.87
2018-08-28T04:55:16.386Z,69.01
2018-08-28T04:57:40.293Z,69.29
2018-08-28T05:00:04.338Z,69.25
2018-08-28T05:02:35.868Z,68.99
2018-08-28T05:04:59.798Z,68.73
2018-08-28T05:07:23.659Z,69.18
2018-08-28T05:09:47.637Z,69.17
2018-08-28T05:12:11.519Z,69.02
2018-08-28T05:14:35.422Z,69.29
2018-08-28T05:16:59.724Z,69.33
2018-08-28T05:19:23.612Z,69.54
2018-08-28T05:21:47.526Z,69.47
2018-08-28T05:24:11.415Z,69.99
2018-08-28T05:26:35.293Z,69.89
2018-08-28T05:28:59.282Z,71.20
2018-08-28T05:31:23.143Z,71.16
2018-08-28T05:33:46.975Z,71.10
2018-08-28T05:36:10.847Z,70.80
2018-08-28T05:38:34.694Z,70.51
2018-08-28T05:40:58.558Z,70.01
2018-08-28T05:43:22.463Z,71.22
2018-08-28T05:45:46.425Z,70.75
2018-08-28T05:48:10.345Z,70.15
2018-08-28T05:50:34.242Z,71.42
2018-08-28T05:52:58.138Z,70.15
2018-08-28T05:55:22.020Z,70.76
2018-08-28T05:57:45.965Z,71.08
2018-08-28T06:00:09.864Z,69.79
2018-08-28T06:02:33.753Z,70.48
2018-08-28T06:04:57.792Z,70.58
2018-08-28T06:07:21.673Z,70.30
2018-08-28T06:09:45.794Z,70.34
2018-08-28T06:12:09.640Z,70.58
2018-08-28T06:14:33.596Z,72.46
2018-08-28T06:16:57.430Z,72.48
2018-08-28T06:19:21.288Z,71.85
2018-08-28T06:21:45.226Z,72.18
2018-08-28T06:24:09.148Z,71.53
2018-08-28T06:26:33.098Z,72.04
2018-08-28T06:28:56.945Z,72.21
2018-08-28T06:31:20.878Z,72.01
2018-08-28T06:33:44.839Z,72.69
2018-08-28T06:36:08.698Z,71.77
2018-08-28T06:38:32.599Z,74.16
2018-08-28T06:40:56.448Z,72.66
2018-08-28T06:43:20.372Z,71.89
2018-08-28T06:45:44.312Z,71.58
2018-08-28T06:48:08.212Z,71.58
2018-08-28T06:50:32.076Z,73.11
2018-08-28T06:52:55.968Z,71.71
2018-08-28T06:55:19.831Z,72.23
2018-08-28T06:57:43.748Z,73.82
2018-08-28T07:00:08.197Z,73.76
2018-08-28T07:02:32.102Z,73.26
2018-08-28T07:04:55.993Z,72.76
2018-08-28T07:07:19.857Z,73.19
2018-08-28T07:09:43.746Z,73.24
2018-08-28T07:12:07.431Z,72.71
2018-08-28T07:14:31.326Z,71.71
2018-08-28T07:16:55.232Z,72.87
2018-08-28T07:19:19.096Z,71.82
2018-08-28T07:21:43.072Z,71.85
2018-08-28T07:24:07.258Z,72.21
2018-08-28T07:26:31.178Z,72.43
2018-08-28T07:28:55.085Z,71.77
2018-08-28T07:31:18.989Z,72.68
2018-08-28T07:33:42.826Z,71.12
2018-08-28T07:36:06.814Z,72.22
2018-08-28T07:38:30.687Z,70.98
2018-08-28T07:40:54.570Z,70.99
2018-08-28T07:43:18.468Z,71.60
2018-08-28T07:45:42.334Z,71.79
2018-08-28T07:48:06.340Z,70.74
2018-08-28T07:50:30.301Z,70.72
2018-08-28T07:52:54.176Z,71.30
2018-08-28T07:55:18.143Z,69.91
2018-08-28T07:57:42.200Z,70.29
2018-08-28T08:00:06.691Z,69.88
2018-08-28T08:02:30.559Z,70.04
2018-08-28T08:04:54.422Z,69.70
2018-08-28T08:07:18.322Z,68.80
2018-08-28T08:09:42.179Z,68.68
2018-08-28T08:12:06.292Z,67.45
2018-08-28T08:14:30.197Z,67.99
2018-08-28T08:16:54.090Z,67.30
2018-08-28T08:19:18.001Z,67.81
2018-08-28T08:21:41.817Z,67.37
2018-08-28T08:24:06.060Z,65.94
2018-08-28T08:26:29.941Z,66.96
2018-08-28T08:28:53.788Z,66.51
2018-08-28T08:31:17.714Z,66.37
2018-08-28T08:33:41.556Z,65.87
2018-08-28T08:36:05.722Z,65.45
2018-08-28T08:38:29.621Z,65.07
2018-08-28T08:40:53.490Z,65.56
2018-08-28T08:43:17.400Z,65.05
2018-08-28T08:45:41.264Z,65.57
2018-08-28T08:48:05.126Z,63.75
2018-08-28T08:50:29.028Z,64.86
2018-08-28T08:52:52.916Z,62.88
2018-08-28T08:55:16.803Z,63.11
2018-08-28T08:57:40.858Z,61.88
2018-08-28T09:00:04.763Z,62.11
2018-08-28T09:02:28.637Z,62.67
2018-08-28T09:04:52.535Z,61.94
2018-08-28T09:07:16.439Z,62.29
2018-08-28T09:09:40.489Z,60.43
2018-08-28T09:12:04.399Z,61.35
2018-08-28T09:14:28.243Z,61.58
2018-08-28T09:16:52.225Z,61.28
2018-08-28T09:19:16.129Z,61.29
2018-08-28T09:21:40.366Z,61.22
2018-08-28T09:24:04.227Z,59.39
2018-08-28T09:26:28.139Z,60.02
2018-08-28T09:28:52.045Z,58.37
2018-08-28T09:31:15.991Z,58.72
2018-08-28T09:33:40.058Z,58.30
2018-08-28T09:36:03.895Z,58.43
2018-08-28T09:38:27.758Z,57.18
2018-08-28T09:40:51.660Z,56.66
2018-08-28T09:43:15.554Z,56.91
2018-08-28T09:45:39.929Z,55.81
2018-08-28T09:48:03.894Z,58.21
2018-08-28T09:50:27.776Z,56.67
2018-08-28T09:52:51.669Z,56.61
2018-08-28T09:55:15.565Z,57.91
2018-08-28T09:57:39.703Z,57.34
2018-08-28T10:00:03.574Z,57.49
2018-08-28T10:02:27.613Z,54.73
2018-08-28T10:04:51.567Z,56.16
2018-08-28T10:07:15.577Z,53.86
2018-08-28T10:09:39.670Z,54.05
2018-08-28T10:12:03.524Z,54.10
2018-08-28T10:14:27.470Z,53.99
2018-08-28T10:16:51.539Z,54.46
2018-08-28T10:19:15.431Z,52.95
2018-08-28T10:21:39.757Z,52.42
2018-08-28T10:24:03.619Z,53.65
2018-08-28T10:26:27.591Z,52.50
2018-08-28T10:28:51.536Z,51.38
2018-08-28T10:31:15.434Z,53.20
2018-08-28T10:33:39.475Z,53.16
2018-08-28T10:36:03.827Z,55.51
2018-08-28T10:38:27.732Z,54.84
2018-08-28T10:40:51.635Z,55.43
2018-08-28T10:43:15.741Z,53.97
2018-08-28T10:45:39.703Z,55.10
2018-08-28T10:48:03.600Z,55.59
2018-08-28T10:50:27.490Z,55.64
2018-08-28T10:52:51.559Z,54.09
2018-08-28T10:55:15.634Z,53.65
2018-08-28T10:57:39.504Z,52.79
2018-08-28T11:00:03.389Z,52.50
2018-08-28T11:02:27.309Z,53.23
2018-08-28T11:04:51.199Z,53.99
2018-08-28T11:07:15.407Z,53.02
2018-08-28T11:09:39.260Z,52.41
2018-08-28T11:12:03.138Z,52.86
2018-08-28T11:14:27.033Z,53.07
2018-08-28T11:16:51.151Z,52.28
2018-08-28T11:19:15.515Z,52.67
2018-08-28T11:21:39.405Z,49.70
2018-08-28T11:24:03.533Z,49.56
2018-08-28T11:26:27.428Z,48.82
2018-08-28T11:28:51.297Z,48.55
2018-08-28T11:31:15.531Z,47.85
2018-08-28T11:33:39.369Z,49.21
2018-08-28T11:36:03.216Z,48.90
2018-08-28T11:38:27.147Z,49.85
2018-08-28T11:40:51.113Z,48.38
2018-08-28T11:43:15.296Z,50.10
2018-08-28T11:45:39.198Z,50.56
2018-08-28T11:48:03.071Z,49.32
2018-08-28T11:50:27.004Z,50.25
2018-08-28T11:52:50.941Z,49.71
2018-08-28T11:55:15.010Z,49.70
2018-08-28T11:57:38.927Z,49.30
2018-08-28T12:00:03.047Z,48.77
2018-08-28T12:02:27.009Z,47.25
2018-08-28T12:04:50.987Z,49.69
2018-08-28T12:07:15.043Z,50.21
2018-08-28T12:09:38.943Z,50.04
2018-08-28T12:12:02.850Z,49.81
2018-08-28T12:14:26.795Z,49.88
2018-08-28T12:16:50.792Z,48.88
2018-08-28T12:19:14.754Z,50.53
2018-08-28T12:21:38.752Z,49.67
2018-08-28T12:24:02.644Z,49.95
2018-08-28T12:26:26.581Z,51.32
2018-08-28T12:28:50.572Z,50.60
2018-08-28T12:31:14.433Z,49.92
2018-08-28T12:33:38.320Z,49.77
2018-08-28T12:36:02.203Z,49.50
2018-08-28T12:38:26.083Z,50.23
2018-08-28T12:40:50.087Z,49.36
2018-08-28T12:43:13.963Z,49.69
2018-08-28T12:45:37.871Z,48.98
2018-08-28T12:48:01.757Z,49.36
2018-08-28T12:50:25.630Z,50.00
2018-08-28T12:52:49.654Z,48.93
2018-08-28T12:55:13.549Z,49.79
2018-08-28T12:57:37.471Z,50.67
2018-08-28T13:00:01.344Z,51.00
2018-08-28T13:02:25.637Z,50.30
2018-08-28T13:04:49.616Z,49.04
2018-08-28T13:07:13.530Z,49.40
2018-08-28T13:09:37.580Z,48.42
2018-08-28T13:12:01.496Z,48.41
2018-08-28T13:14:25.484Z,49.57
2018-08-28T13:16:49.563Z,48.81
2018-08-28T13:19:13.432Z,48.48
2018-08-28T13:21:37.318Z,47.11
2018-08-28T13:24:01.209Z,47.67
2018-08-28T13:26:25.097Z,47.16
2018-08-28T13:28:49.091Z,47.33
2018-08-28T13:31:13.120Z,47.81
2018-08-28T13:33:37.017Z,46.39
2018-08-28T13:36:00.921Z,48.00
2018-08-28T13:38:24.830Z,47.46
2018-08-28T13:40:49.113Z,46.65
2018-08-28T13:43:12.777Z,48.91
2018-08-28T13:45:36.684Z,48.97
2018-08-28T13:48:00.579Z,49.05
2018-08-28T13:50:24.577Z,47.78
2018-08-28T13:52:48.616Z,47.97
2018-08-28T13:55:12.542Z,49.91
2018-08-28T13:57:36.637Z,48.14
2018-08-28T14:00:00.593Z,49.89
2018-08-28T14:02:24.454Z,48.85
2018-08-28T14:04:48.355Z,48.67
2018-08-28T14:07:12.381Z,49.29
2018-08-28T14:09:36.252Z,49.71
2018-08-28T14:12:00.149Z,49.08
2018-08-28T14:14:24.210Z,50.71
2018-08-28T14:16:48.150Z,49.97
2018-08-28T14:19:12.023Z,49.49
2018-08-28T14:21:35.948Z,50.98
2018-08-28T14:23:59.858Z,50.98
2018-08-28T14:26:23.859Z,50.97
2018-08-28T14:28:47.867Z,50.18
2018-08-28T14:31:11.701Z,49.07
2018-08-28T14:33:35.599Z,49.66
2018-08-28T14:35:59.570Z,49.97
2018-08-28T14:38:23.523Z,50.62
2018-08-28T14:40:47.420Z,49.27
2018-08-28T14:43:11.300Z,48.49
2018-08-28T14:45:35.222Z,49.71
2018-08-28T14:47:59.201Z,50.87
2018-08-28T14:50:23.425Z,48.63
2018-08-28T14:52:47.197Z,48.54
2018-08-28T14:55:11.135Z,47.32
2018-08-28T14:57:35.205Z,47.40
2018-08-28T14:59:59.164Z,46.93
2018-08-28T15:02:23.212Z,46.62
2018-08-28T15:04:47.175Z,45.91
2018-08-28T15:07:11.321Z,44.96
2018-08-28T15:09:35.092Z,45.41
2018-08-28T15:11:59.017Z,44.49
2018-08-28T15:14:23.022Z,44.17
2018-08-28T15:16:46.949Z,43.95
2018-08-28T15:19:10.877Z,43.10
2018-08-28T15:21:34.880Z,42.49
2018-08-28T15:23:59.455Z,42.85
2018-08-28T15:26:23.468Z,44.00
2018-08-28T15:28:47.360Z,43.55
2018-08-28T15:31:11.354Z,43.88
2018-08-28T15:33:35.237Z,43.73
2018-08-28T15:35:59.132Z,42.79
2018-08-28T15:38:23.034Z,44.01
2018-08-28T15:40:46.942Z,43.92
2018-08-28T15:43:11.016Z,42.17
2018-08-28T15:45:34.936Z,41.87
2018-08-28T15:47:58.867Z,42.78
2018-08-28T15:50:22.827Z,43.28
2018-08-28T15:52:46.710Z,42.57
2018-08-28T15:55:10.771Z,41.72
2018-08-28T15:57:34.759Z,41.00
2018-08-28T15:59:58.674Z,43.00
2018-08-28T16:02:22.814Z,42.48
2018-08-28T16:04:46.865Z,41.54
2018-08-28T16:07:10.626Z,42.46
2018-08-28T16:09:34.545Z,43.44
2018-08-28T16:11:58.422Z,43.40
2018-08-28T16:14:22.501Z,42.88
2018-08-28T16:16:47.041Z,43.67
2018-08-28T16:19:10.939Z,42.81
2018-08-28T16:21:45.611Z,42.76
2018-08-28T16:24:09.524Z,43.21
2018-08-28T16:26:33.582Z,42.49
2018-08-28T16:28:57.511Z,42.45
2018-08-28T16:31:21.418Z,41.57
2018-08-28T16:33:45.384Z,42.64
2018-08-28T16:36:09.253Z,42.24
2018-08-28T16:38:33.287Z,42.17
2018-08-28T16:40:57.285Z,41.86
2018-08-28T16:43:21.222Z,41.82
2018-08-28T16:45:45.148Z,42.50
2018-08-28T16:48:09.065Z,42.13
2018-08-28T16:50:33.395Z,42.78
2018-08-28T16:52:57.345Z,42.02
2018-08-28T16:55:21.303Z,41.93
2018-08-28T16:57:45.229Z,42.64
2018-08-28T17:00:09.161Z,41.80
2018-08-28T17:02:33.290Z,42.79
2018-08-28T17:04:57.211Z,43.29
2018-08-28T17:07:21.273Z,43.47
2018-08-28T17:09:45.261Z,42.93
2018-08-28T17:12:09.206Z,42.84
2018-08-28T17:14:33.259Z,43.02
2018-08-28T17:16:57.177Z,43.76
2018-08-28T17:19:21.217Z,43.76
2018-08-28T17:21:45.142Z,44.02
2018-08-28T17:24:09.005Z,43.53
2018-08-28T17:26:33.226Z,44.86
2018-08-28T17:28:57.150Z,44.54
2018-08-28T17:31:21.041Z,45.08
2018-08-28T17:33:45.046Z,44.80
2018-08-28T17:36:09.003Z,45.40
2018-08-28T17:38:33.050Z,45.24
2018-08-28T17:40:57.008Z,45.94
2018-08-28T17:43:21.029Z,45.29
2018-08-28T17:45:45.041Z,46.04
2018-08-28T17:48:09.043Z,46.58
2018-08-28T17:50:32.980Z,46.59
2018-08-28T17:52:56.935Z,47.03
2018-08-28T17:55:20.930Z,47.50
2018-08-28T17:57:44.889Z,49.11
2018-08-28T18:00:08.843Z,49.13
2018-08-28T18:02:32.784Z,48.38
2018-08-28T18:04:56.821Z,49.79
2018-08-28T18:07:20.736Z,50.08
2018-08-28T18:09:44.778Z,49.61
2018-08-28T18:12:08.869Z,50.93
2018-08-28T18:14:32.881Z,52.05
2018-08-28T18:16:56.806Z,52.13
2018-08-28T18:19:20.718Z,51.52
2018-08-28T18:21:44.613Z,51.01
2018-08-28T18:24:08.503Z,51.06
2018-08-28T18:26:32.500Z,51.83
2018-08-28T18:28:56.534Z,51.07
2018-08-28T18:31:20.407Z,50.05
2018-08-28T18:33:44.384Z,50.12
2018-08-28T18:36:08.313Z,51.03
2018-08-28T18:38:32.259Z,51.73
2018-08-28T18:40:56.319Z,51.03
2018-08-28T18:43:20.259Z,51.84
2018-08-28T18:45:44.406Z,51.93
2018-08-28T18:48:08.362Z,52.29
2018-08-28T18:50:32.353Z,51.79
2018-08-28T18:52:56.320Z,52.24
2018-08-28T18:55:20.286Z,52.04
2018-08-28T18:57:44.252Z,52.14
2018-08-28T19:00:08.272Z,51.80
2018-08-28T19:02:32.273Z,52.37
2018-08-28T19:04:57.150Z,52.80
2018-08-28T19:07:21.095Z,52.69
2018-08-28T19:09:45.169Z,53.00
2018-08-28T19:12:09.069Z,53.12
2018-08-28T19:14:33.045Z,54.23
2018-08-28T19:16:57.069Z,53.82
2018-08-28T19:19:20.983Z,53.87
2018-08-28T19:21:44.971Z,54.06
2018-08-28T19:24:09.179Z,53.84
2018-08-28T19:26:33.147Z,54.10
2018-08-28T19:28:57.085Z,54.22
2018-08-28T19:31:21.067Z,54.39
2018-08-28T19:33:45.022Z,55.26
2018-08-28T19:36:08.975Z,55.22
2018-08-28T19:38:32.885Z,55.49
2018-08-28T19:40:57.867Z,55.05
2018-08-28T19:43:21.865Z,54.80
2018-08-28T19:45:45.821Z,55.22
2018-08-28T19:48:09.735Z,55.13
2018-08-28T19:50:33.701Z,55.34
2018-08-28T19:52:57.765Z,55.79
2018-08-28T19:55:21.928Z,55.82
2018-08-28T19:57:45.933Z,56.20
2018-08-28T20:00:10.579Z,56.67
2018-08-28T20:02:34.529Z,55.47
2018-08-28T20:04:58.493Z,56.35
2018-08-28T20:07:22.443Z,57.00
2018-08-28T20:09:46.438Z,57.13
2018-08-28T20:12:10.520Z,57.01
2018-08-28T20:14:34.475Z,56.86
2018-08-28T20:16:58.386Z,56.45
2018-08-28T20:19:22.321Z,56.92
2018-08-28T20:21:46.230Z,57.31
2018-08-28T20:24:10.123Z,57.30
2018-08-28T20:26:34.015Z,57.73
2018-08-28T20:28:58.005Z,57.36
2018-08-28T20:31:21.958Z,57.69
2018-08-28T20:33:45.971Z,57.78
2018-08-28T20:36:09.874Z,57.41
2018-08-28T20:38:33.817Z,57.32
2018-08-28T20:40:57.759Z,57.51
2018-08-28T20:43:21.678Z,57.71
2018-08-28T20:45:45.625Z,57.66
2018-08-28T20:48:09.509Z,58.41
2018-08-28T20:50:33.475Z,57.54
2018-08-28T20:52:57.380Z,58.36
2018-08-28T20:55:21.368Z,57.86
2018-08-28T20:57:45.510Z,58.31
2018-08-28T21:00:09.479Z,57.96
2018-08-28T21:02:33.368Z,58.76
2018-08-28T21:04:57.285Z,58.06
2018-08-28T21:07:21.249Z,58.16
2018-08-28T21:09:45.139Z,58.50
2018-08-28T21:12:09.394Z,59.39
2018-08-28T21:14:33.478Z,59.00
2018-08-28T21:16:57.420Z,58.81
2018-08-28T21:19:21.363Z,58.11
2018-08-28T21:21:45.235Z,58.76
2018-08-28T21:24:09.372Z,59.04
2018-08-28T21:26:33.264Z,59.53
2018-08-28T21:28:57.245Z,59.63
2018-08-28T21:31:21.212Z,58.39
2018-08-28T21:33:45.167Z,59.47
2018-08-28T21:36:10.370Z,59.86
2018-08-28T21:38:34.213Z,59.62
2018-08-28T21:40:58.141Z,59.60
2018-08-28T21:43:22.044Z,59.88
2018-08-28T21:45:45.927Z,60.27
2018-08-28T21:48:09.878Z,60.36
2018-08-28T21:50:33.761Z,59.55
2018-08-28T21:52:58.008Z,60.45
2018-08-28T21:55:21.959Z,60.52
2018-08-28T21:57:45.828Z,60.11
2018-08-28T22:00:09.700Z,60.13
2018-08-28T22:02:33.662Z,60.45
2018-08-28T22:04:57.874Z,60.52
2018-08-28T22:07:27.133Z,60.43
2018-08-28T22:09:51.040Z,60.96
2018-08-28T22:12:14.986Z,60.24
2018-08-28T22:14:38.912Z,61.18
2018-08-28T22:17:03.082Z,60.81
2018-08-28T22:19:26.950Z,60.42
2018-08-28T22:21:50.882Z,60.93
2018-08-28T22:24:14.752Z,60.80
2018-08-28T22:26:38.646Z,60.48
2018-08-28T22:29:02.780Z,60.72
2018-08-28T22:31:26.653Z,60.50
2018-08-28T22:33:50.547Z,60.44
2018-08-28T22:36:14.448Z,60.92
2018-08-28T22:38:38.354Z,60.78
2018-08-28T22:41:02.276Z,60.80
2018-08-28T22:43:26.161Z,60.92
2018-08-28T22:45:50.285Z,61.01
2018-08-28T22:48:14.383Z,60.63
2018-08-28T22:50:38.233Z,61.86
2018-08-28T22:53:02.086Z,61.43
2018-08-28T22:55:26.005Z,60.84
2018-08-28T22:57:49.860Z,61.22
2018-08-28T23:00:13.748Z,61.22
2018-08-28T23:02:37.648Z,61.75
2018-08-28T23:05:01.686Z,61.89
2018-08-28T23:07:25.571Z,60.84
2018-08-28T23:09:49.647Z,60.70
2018-08-28T23:12:13.533Z,61.25
2018-08-28T23:14:37.429Z,61.02
2018-08-28T23:17:01.499Z,61.06
2018-08-28T23:19:25.485Z,60.91
2018-08-28T23:21:49.399Z,61.06
2018-08-28T23:24:13.303Z,61.54
2018-08-28T23:26:37.156Z,61.09
2018-08-28T23:29:01.351Z,61.11
2018-08-28T23:31:25.419Z,61.77
2018-08-28T23:33:49.282Z,61.21
2018-08-28T23:36:13.248Z,62.17
2018-08-28T23:38:37.141Z,62.25
2018-08-28T23:41:01.214Z,62.33
2018-08-28T23:43:25.068Z,62.30
2018-08-28T23:45:48.915Z,62.58
2018-08-28T23:48:12.801Z,62.24
2018-08-28T23:50:36.675Z,62.13
2018-08-28T23:53:00.700Z,62.12
2018-08-28T23:55:24.622Z,61.70
2018-08-28T23:57:48.474Z,62.00
